This is the latest recevied weather packets stored in our database for station/object AA7VG. If no packets are shown the sender has not sent any weather packets the latest 10 day(s).
| Time | Temp. | Humidity | Pressure | Rain* | Wind** | Luminosity | Snow |
|---|---|---|---|---|---|---|---|
| 1777420421 | 10.56° C | 38% | 1016.9 hPa | 0 mm | - | - | - |
| 1777420117 | 10.56° C | 39% | 1017 hPa | 0 mm | - | - | - |
| 1777419813 | 11.67° C | 40% | 1016.8 hPa | 0 mm | - | - | - |
| 1777419511 | 12.22° C | 38% | 1016.4 hPa | 0 mm | - | - | - |
| 1777419210 | 12.22° C | 36% | 1016.6 hPa | 0 mm | - | - | - |
| 1777418906 | 12.78° C | 34% | 1016.7 hPa | 0 mm | - | - | - |
| 1777418602 | 11.67° C | 37% | 1016.6 hPa | 0 mm | - | - | - |
| 1777418298 | 12.22° C | 35% | 1016.9 hPa | 0 mm | - | - | - |
| 1777417994 | 11.67° C | 37% | 1016.4 hPa | 0 mm | - | - | - |
| 1777417690 | 11.67° C | 39% | 1016.6 hPa | 0 mm | - | - | - |
| 1777417386 | 11.67° C | 37% | 1016.6 hPa | 0 mm | - | - | - |
| 1777417083 | 11.11° C | 38% | 1016.2 hPa | 0 mm | - | - | - |
| 1777416778 | 10.56° C | 39% | 1016.3 hPa | 0 mm | - | - | - |
| 1777416474 | 11.11° C | 41% | 1016.7 hPa | 0 mm | - | - | - |
| 1777416170 | 11.11° C | 43% | 1016.7 hPa | 0 mm | - | - | - |
| 1777415869 | 11.11° C | 42% | 1016.7 hPa | 0 mm | - | - | - |
| 1777415566 | 11.11° C | 41% | 1017 hPa | 0 mm | - | - | - |
| 1777415261 | 11.67° C | 41% | 1016.8 hPa | 0 mm | - | - | - |
| 1777414957 | 12.78° C | 39% | 1016.7 hPa | 0 mm | - | - | - |
| 1777414656 | 11.67° C | 41% | 1016.7 hPa | 0 mm | - | - | - |
| 1777414352 | 11.67° C | 43% | 1016.8 hPa | 0 mm | - | - | - |
| 1777414047 | 11.67° C | 42% | 1016.7 hPa | 0 mm | - | - | - |
| 1777413747 | 11.67° C | 41% | 1016.8 hPa | 0 mm | - | - | - |
| 1777413443 | 11.67° C | 43% | 1016.7 hPa | 0 mm | - | - | - |
| 1777413140 | 11.67° C | 42% | 1016.8 hPa | 0 mm | - | - | - |
* Rain latest hour (hover to see other rain measurements)
** Current wind speed in m/s (hover to see current wind gust speed)